UGKO

Details ICAO UGKO (KUT)
Name KOPITNARI
Region Georgia
Timezone Asia/Tbilisi (UTC+4.0)
Plans Departing 13
Arriving 13
Stats Elevation 223 ft / 68 m (AMSL)
Location 42.176653° 42.482583°
Runways 1
Magnetic Variation 6.735° E
Sunrise 2017-12-13 04:31:31 UTC / 2017-12-13 08:31:31 Local
Sunset 2017-12-13 13:39:45 UTC / 2017-12-13 17:39:45 Local
Advertisement - Login to hide

Runways

ID Width Length Bearing (true) Bearing (mag) Surface Threshold Offset Overrun Length
08 144 ft / 44 m 8,171 ft / 2,490 m 80.55° 73.81° Concrete 0 ft / 0 m 60 ft / 18 m
26 144 ft / 44 m 8,171 ft / 2,490 m 260.57° 253.83° Concrete 0 ft / 0 m 60 ft / 18 m

Map

Weather


0- 5 10 15 20 25 30 35+ Temperature / ° C

Clouds and Precipitation
Forecast for 2017-12-13 18:00 UTC. Updated 2 hours ago

Ground ~20,000 ft ~40,000 ft Winds

METAR

UGKO 131830Z 30002KT CAVOK 05/M00 Q1019 R07/09//70 NOSIG

TAF

Not found

Frequencies

Tower 125.50 MHz KUTAISI TWR
Warning: Do not use this data for real-world aviation or navigation. No guarantee of current accuracy is given.